Time;durP1;ratioP1;P1;durP2;ratioP2;P2;SDS_P1;SDS_P2;PMS_P1;PMS_P2;Temp;Humidity;BMP_temperature;BMP_pressure;BME280_temperature;BME280_humidity;BME280_pressure;Samples;Min_cycle;Max_cycle;Signal;HPM_P1;HPM_P2
2023/12/02 00:01:34;;;;;;;5.28;4.88;;;;;;;;;;5049554;28;20588;-60
2023/12/02 00:04:03;;;;;;;5.60;5.10;;;;;;;;;;5050894;28;20041;-60
2023/12/02 00:06:31;;;;;;;5.15;4.75;;;;;;;;;;5047501;28;20521;-62
2023/12/02 00:09:00;;;;;;;4.85;4.40;;;;;;;;;;5037142;28;20061;-60
2023/12/02 00:11:30;;;;;;;5.13;4.63;;;;;;;;;;5049960;28;20045;-60
2023/12/02 00:13:58;;;;;;;4.47;4.07;;;;;;;;;;5047319;28;20075;-61
2023/12/02 00:16:26;;;;;;;4.88;4.57;;;;;;;;;;5044087;28;20076;-61
2023/12/02 00:18:55;;;;;;;4.97;4.60;;;;;;;;;;5045991;28;20569;-64
2023/12/02 00:21:24;;;;;;;5.43;4.88;;;;;;;;;;5040993;28;20045;-62
2023/12/02 00:23:52;;;;;;;4.88;4.47;;;;;;;;;;5041076;28;20048;-65
2023/12/02 00:26:21;;;;;;;5.43;4.93;;;;;;;;;;5048894;28;20525;-60
2023/12/02 00:28:51;;;;;;;5.25;4.75;;;;;;;;;;5048153;28;20099;-62
2023/12/02 00:31:19;;;;;;;5.78;5.05;;;;;;;;;;5050356;28;20045;-63
2023/12/02 00:33:48;;;;;;;4.50;4.10;;;;;;;;;;5044258;28;20072;-63
2023/12/02 00:36:16;;;;;;;6.13;5.53;;;;;;;;;;5041716;28;20037;-61
2023/12/02 00:38:45;;;;;;;5.40;4.90;;;;;;;;;;5048807;28;20464;-62
2023/12/02 00:41:13;;;;;;;4.47;4.07;;;;;;;;;;5044713;28;20048;-60
2023/12/02 00:43:42;;;;;;;4.65;4.28;;;;;;;;;;5044162;28;20524;-63
2023/12/02 00:46:12;;;;;;;5.20;4.80;;;;;;;;;;5049782;28;20107;-59
2023/12/02 00:48:40;;;;;;;5.35;4.85;;;;;;;;;;5048820;28;20122;-58
2023/12/02 00:51:09;;;;;;;4.57;4.18;;;;;;;;;;5050359;28;20415;-60
2023/12/02 00:53:37;;;;;;;5.85;5.13;;;;;;;;;;5046313;28;20036;-59
2023/12/02 00:56:06;;;;;;;5.38;4.88;;;;;;;;;;5049873;28;20095;-60
2023/12/02 00:58:35;;;;;;;4.68;4.38;;;;;;;;;;5045948;28;20099;-62
2023/12/02 01:01:09;;;;;;;5.50;5.00;;;;;;;;;;5048184;28;20065;-61
2023/12/02 01:03:38;;;;;;;5.32;4.55;;;;;;;;;;5043945;28;20368;-59
2023/12/02 01:06:07;;;;;;;5.15;4.63;;;;;;;;;;5040767;28;20136;-60
2023/12/02 01:08:36;;;;;;;4.40;4.07;;;;;;;;;;5046438;28;20051;-61
2023/12/02 01:11:04;;;;;;;5.05;4.65;;;;;;;;;;5041137;28;20348;-60
2023/12/02 01:13:33;;;;;;;6.28;4.70;;;;;;;;;;5035565;28;20044;-60
2023/12/02 01:16:01;;;;;;;5.03;4.63;;;;;;;;;;5042857;28;20064;-60
2023/12/02 01:18:30;;;;;;;5.72;4.25;;;;;;;;;;5034942;28;20585;-59
2023/12/02 01:20:59;;;;;;;5.18;4.72;;;;;;;;;;5043154;28;20041;-61
2023/12/02 01:23:28;;;;;;;5.97;4.65;;;;;;;;;;5036815;28;20052;-61
2023/12/02 01:25:56;;;;;;;5.03;4.65;;;;;;;;;;5034762;28;20046;-61
2023/12/02 01:28:25;;;;;;;5.00;4.60;;;;;;;;;;5043508;28;20076;-59
2023/12/02 01:30:54;;;;;;;5.25;4.75;;;;;;;;;;5049344;28;20726;-58
2023/12/02 01:33:22;;;;;;;5.40;4.90;;;;;;;;;;5030396;28;20148;-65
2023/12/02 01:35:51;;;;;;;6.57;5.97;;;;;;;;;;5045505;28;20053;-61
2023/12/02 01:38:20;;;;;;;4.88;4.47;;;;;;;;;;5046260;28;20498;-61
2023/12/02 01:40:49;;;;;;;5.30;4.78;;;;;;;;;;5044436;28;20094;-61
2023/12/02 01:43:22;;;;;;;5.28;4.80;;;;;;;;;;5040887;28;20053;-59
2023/12/02 01:45:50;;;;;;;5.38;4.97;;;;;;;;;;5038515;28;20037;-63
2023/12/02 01:48:19;;;;;;;4.60;4.30;;;;;;;;;;5042622;28;21130;-63
2023/12/02 01:50:47;;;;;;;4.63;4.30;;;;;;;;;;5038997;28;20151;-60
2023/12/02 01:53:16;;;;;;;4.90;4.43;;;;;;;;;;5045536;28;20041;-58
2023/12/02 01:55:46;;;;;;;6.68;5.22;;;;;;;;;;5044952;28;20044;-59
2023/12/02 01:58:14;;;;;;;5.47;4.97;;;;;;;;;;5045137;28;20763;-61
2023/12/02 02:00:43;;;;;;;6.00;5.45;;;;;;;;;;5047238;28;20551;-61
2023/12/02 02:03:11;;;;;;;6.07;5.25;;;;;;;;;;5044355;28;20057;-59
2023/12/02 02:05:40;;;;;;;5.47;4.97;;;;;;;;;;5042703;28;20049;-59
2023/12/02 02:08:08;;;;;;;5.30;4.80;;;;;;;;;;5043788;28;20057;-59
2023/12/02 02:10:37;;;;;;;6.45;5.85;;;;;;;;;;5037915;28;20053;-60
2023/12/02 02:13:06;;;;;;;5.85;5.10;;;;;;;;;;5046710;28;20270;-60
2023/12/02 02:15:35;;;;;;;5.38;4.88;;;;;;;;;;5045635;28;20191;-64
2023/12/02 02:18:03;;;;;;;5.47;4.97;;;;;;;;;;5044498;28;20059;-58
2023/12/02 02:20:32;;;;;;;6.10;5.28;;;;;;;;;;5042161;28;20128;-59
2023/12/02 02:23:01;;;;;;;5.32;4.82;;;;;;;;;;5044529;28;20460;-59
2023/12/02 02:25:31;;;;;;;5.40;4.68;;;;;;;;;;5043655;28;20099;-61
2023/12/02 02:28:00;;;;;;;5.80;4.88;;;;;;;;;;5036614;28;20087;-60
2023/12/02 02:30:28;;;;;;;6.43;5.82;;;;;;;;;;5040454;28;20046;-60
2023/12/02 02:32:56;;;;;;;5.70;5.20;;;;;;;;;;5041480;28;20056;-61
2023/12/02 02:35:25;;;;;;;5.43;4.93;;;;;;;;;;5041012;28;20068;-60
2023/12/02 02:37:53;;;;;;;5.93;5.35;;;;;;;;;;5042693;28;20115;-60
2023/12/02 02:40:23;;;;;;;5.40;4.93;;;;;;;;;;5043331;28;20052;-60
2023/12/02 02:42:51;;;;;;;4.97;4.55;;;;;;;;;;5037339;28;20053;-60
2023/12/02 02:45:20;;;;;;;5.22;4.82;;;;;;;;;;5040110;28;20128;-60
2023/12/02 02:47:48;;;;;;;5.53;5.10;;;;;;;;;;5046013;28;20075;-60
2023/12/02 02:50:17;;;;;;;5.07;4.70;;;;;;;;;;5044912;28;20535;-61
2023/12/02 02:52:46;;;;;;;6.15;5.65;;;;;;;;;;5043621;28;20040;-59
2023/12/02 02:55:14;;;;;;;5.80;5.20;;;;;;;;;;5045049;28;20061;-62
2023/12/02 02:57:44;;;;;;;5.00;4.60;;;;;;;;;;5046671;28;20382;-60
2023/12/02 03:00:13;;;;;;;4.70;4.20;;;;;;;;;;5043918;28;20499;-59
2023/12/02 03:02:41;;;;;;;6.40;5.80;;;;;;;;;;5042098;28;21488;-61
2023/12/02 03:05:10;;;;;;;4.80;4.40;;;;;;;;;;5046591;28;20052;-61
2023/12/02 03:07:39;;;;;;;5.50;5.00;;;;;;;;;;5044336;28;20044;-59
2023/12/02 03:10:08;;;;;;;5.57;5.10;;;;;;;;;;5041951;28;20037;-59
2023/12/02 03:12:37;;;;;;;6.65;6.05;;;;;;;;;;5043225;28;20064;-60
2023/12/02 03:15:07;;;;;;;5.38;4.93;;;;;;;;;;5047024;28;20055;-61
2023/12/02 03:17:36;;;;;;;5.40;4.93;;;;;;;;;;5047089;28;20255;-62
2023/12/02 03:20:06;;;;;;;5.40;4.93;;;;;;;;;;5040465;28;20049;-60
2023/12/02 03:22:34;;;;;;;6.30;5.70;;;;;;;;;;5045000;28;20141;-58
2023/12/02 03:25:02;;;;;;;5.30;4.80;;;;;;;;;;5041455;28;20114;-60
2023/12/02 03:27:31;;;;;;;4.75;4.35;;;;;;;;;;5042986;28;20049;-59
2023/12/02 03:29:59;;;;;;;6.28;5.55;;;;;;;;;;5040404;28;20056;-61
2023/12/02 03:32:29;;;;;;;5.32;4.90;;;;;;;;;;5044285;28;20049;-59
2023/12/02 03:34:58;;;;;;;6.07;5.47;;;;;;;;;;5042376;28;20045;-61
2023/12/02 03:37:26;;;;;;;4.88;4.47;;;;;;;;;;5048752;28;20048;-61
2023/12/02 03:39:54;;;;;;;5.70;5.03;;;;;;;;;;5039719;28;20044;-60
2023/12/02 03:42:23;;;;;;;5.80;5.30;;;;;;;;;;5049903;28;20103;-61
2023/12/02 03:44:51;;;;;;;6.30;5.70;;;;;;;;;;5050244;28;20052;-61
2023/12/02 03:47:19;;;;;;;5.97;5.43;;;;;;;;;;5042885;28;20134;-63
2023/12/02 03:49:49;;;;;;;5.47;4.95;;;;;;;;;;5050581;28;20073;-59
2023/12/02 03:52:17;;;;;;;5.75;5.25;;;;;;;;;;5048457;28;20512;-61
2023/12/02 03:54:46;;;;;;;4.80;4.40;;;;;;;;;;5046298;28;20045;-59
2023/12/02 03:57:15;;;;;;;5.97;4.90;;;;;;;;;;5046134;28;20060;-60
2023/12/02 03:59:43;;;;;;;5.55;5.05;;;;;;;;;;5048421;28;20579;-61
2023/12/02 04:02:11;;;;;;;5.35;4.85;;;;;;;;;;5044765;28;20726;-62
2023/12/02 04:04:40;;;;;;;6.20;5.40;;;;;;;;;;5046221;28;20468;-59
2023/12/02 04:07:10;;;;;;;5.72;5.28;;;;;;;;;;5045337;28;20056;-60
2023/12/02 04:09:38;;;;;;;5.75;5.25;;;;;;;;;;5046757;28;20048;-60
2023/12/02 04:12:07;;;;;;;5.68;5.13;;;;;;;;;;5049376;28;20045;-61
2023/12/02 04:14:35;;;;;;;4.93;4.53;;;;;;;;;;5048567;28;20797;-60
2023/12/02 04:17:03;;;;;;;5.60;5.10;;;;;;;;;;5046622;28;20138;-61
2023/12/02 04:19:32;;;;;;;5.78;5.18;;;;;;;;;;5049765;28;20090;-61
2023/12/02 04:22:01;;;;;;;6.00;5.50;;;;;;;;;;5046510;28;20055;-59
2023/12/02 04:24:31;;;;;;;6.07;5.50;;;;;;;;;;5044869;28;20142;-59
2023/12/02 04:26:59;;;;;;;5.82;5.32;;;;;;;;;;5035038;28;20472;-60
2023/12/02 04:29:27;;;;;;;7.50;5.93;;;;;;;;;;5046033;28;20045;-59
2023/12/02 04:31:56;;;;;;;5.57;5.03;;;;;;;;;;5047310;28;20048;-60
2023/12/02 04:34:24;;;;;;;6.28;5.72;;;;;;;;;;5045850;28;20084;-60
2023/12/02 04:36:53;;;;;;;7.13;6.43;;;;;;;;;;5046250;28;20464;-59
2023/12/02 04:39:21;;;;;;;7.28;6.00;;;;;;;;;;5047203;28;20347;-60
2023/12/02 04:41:51;;;;;;;6.10;5.50;;;;;;;;;;5039303;28;20474;-60
2023/12/02 04:44:19;;;;;;;5.53;5.10;;;;;;;;;;5047596;28;20102;-60
2023/12/02 04:46:48;;;;;;;5.53;5.10;;;;;;;;;;5039055;28;20107;-62
2023/12/02 04:49:16;;;;;;;5.40;4.88;;;;;;;;;;5046306;28;20052;-59
2023/12/02 04:51:46;;;;;;;6.00;5.43;;;;;;;;;;5045404;28;20099;-61
2023/12/02 04:54:14;;;;;;;7.10;5.53;;;;;;;;;;5045540;28;20091;-63
2023/12/02 04:56:43;;;;;;;5.43;4.93;;;;;;;;;;5039758;28;20045;-59
2023/12/02 04:59:12;;;;;;;5.97;5.38;;;;;;;;;;5049732;28;20097;-61
2023/12/02 05:01:41;;;;;;;5.70;5.20;;;;;;;;;;5043531;28;20576;-60
2023/12/02 05:04:09;;;;;;;6.53;5.93;;;;;;;;;;5045239;28;20048;-59
2023/12/02 05:06:38;;;;;;;6.00;5.30;;;;;;;;;;5044624;28;20099;-67
2023/12/02 05:09:08;;;;;;;6.20;5.60;;;;;;;;;;5044348;28;20049;-60
2023/12/02 05:11:36;;;;;;;6.50;5.63;;;;;;;;;;5044121;28;20055;-60
2023/12/02 05:14:04;;;;;;;6.35;5.78;;;;;;;;;;5046843;28;20409;-59
2023/12/02 05:16:34;;;;;;;5.95;5.35;;;;;;;;;;5045515;28;20076;-61
2023/12/02 05:19:03;;;;;;;7.65;5.78;;;;;;;;;;5043919;28;20056;-61
2023/12/02 05:21:32;;;;;;;6.82;6.20;;;;;;;;;;5048263;28;20110;-62
2023/12/02 05:24:00;;;;;;;6.28;5.68;;;;;;;;;;5046295;28;20064;-62
2023/12/02 05:26:28;;;;;;;7.00;6.30;;;;;;;;;;5042721;28;20057;-60
2023/12/02 05:28:57;;;;;;;6.25;5.68;;;;;;;;;;5043550;28;20477;-62
2023/12/02 05:31:25;;;;;;;6.70;6.10;;;;;;;;;;5041873;28;20122;-60
2023/12/02 05:33:55;;;;;;;7.57;6.85;;;;;;;;;;5042122;28;20044;-60
2023/12/02 05:36:24;;;;;;;7.35;6.13;;;;;;;;;;5046765;28;20060;-61
2023/12/02 05:38:53;;;;;;;7.57;6.75;;;;;;;;;;5044535;28;20048;-62
2023/12/02 05:41:21;;;;;;;6.15;5.57;;;;;;;;;;5042729;28;20087;-61
2023/12/02 05:43:49;;;;;;;7.72;6.65;;;;;;;;;;5045520;28;20045;-62
2023/12/02 05:46:18;;;;;;;6.20;5.60;;;;;;;;;;5045610;28;20557;-61
2023/12/02 05:48:47;;;;;;;7.78;6.97;;;;;;;;;;5043132;28;20061;-60
2023/12/02 05:51:17;;;;;;;7.18;6.47;;;;;;;;;;5047012;28;20068;-60
2023/12/02 05:53:45;;;;;;;6.85;5.85;;;;;;;;;;5042643;28;20095;-60
2023/12/02 05:56:14;;;;;;;6.75;6.10;;;;;;;;;;5040724;28;20526;-60
2023/12/02 05:58:42;;;;;;;6.50;5.95;;;;;;;;;;5037412;28;20053;-62
2023/12/02 06:01:10;;;;;;;7.22;5.93;;;;;;;;;;5044874;28;20056;-61
2023/12/02 06:03:39;;;;;;;7.88;7.07;;;;;;;;;;5043034;28;20056;-65
2023/12/02 06:06:11;;;;;;;6.32;5.65;;;;;;;;;;5044307;28;20049;-60
2023/12/02 06:08:41;;;;;;;6.70;6.00;;;;;;;;;;5040521;28;20515;-62
2023/12/02 06:11:09;;;;;;;7.72;6.35;;;;;;;;;;5042375;28;20044;-62
2023/12/02 06:13:37;;;;;;;6.47;5.88;;;;;;;;;;5043057;28;20323;-61
2023/12/02 06:16:06;;;;;;;7.60;6.35;;;;;;;;;;5040100;28;20049;-60
2023/12/02 06:18:35;;;;;;;7.10;6.40;;;;;;;;;;5041601;28;20053;-61
2023/12/02 06:21:03;;;;;;;8.00;6.35;;;;;;;;;;5047752;28;20060;-62
2023/12/02 06:23:32;;;;;;;6.80;5.95;;;;;;;;;;5041621;28;20341;-63
2023/12/02 06:26:02;;;;;;;7.10;5.85;;;;;;;;;;5037153;28;20526;-62
2023/12/02 06:28:30;;;;;;;7.18;5.90;;;;;;;;;;5039552;28;20037;-60
2023/12/02 06:30:58;;;;;;;6.82;6.05;;;;;;;;;;5042443;28;20133;-60
2023/12/02 06:33:27;;;;;;;6.63;6.03;;;;;;;;;;5042390;28;20088;-60
2023/12/02 06:35:55;;;;;;;6.72;6.13;;;;;;;;;;5048350;28;20060;-62
2023/12/02 06:38:24;;;;;;;5.63;5.13;;;;;;;;;;5043376;28;20060;-64
2023/12/02 06:40:53;;;;;;;7.20;6.45;;;;;;;;;;5040983;28;20403;-61
2023/12/02 06:43:22;;;;;;;6.53;5.57;;;;;;;;;;5045361;28;20056;-60
2023/12/02 06:45:51;;;;;;;6.88;5.22;;;;;;;;;;5046852;28;20068;-59
2023/12/02 06:48:19;;;;;;;6.53;5.93;;;;;;;;;;5048027;28;20132;-60
2023/12/02 06:50:48;;;;;;;7.28;6.28;;;;;;;;;;5045706;28;20045;-61
2023/12/02 06:53:16;;;;;;;7.13;6.45;;;;;;;;;;5039573;28;20037;-63
2023/12/02 06:55:45;;;;;;;6.60;6.00;;;;;;;;;;5044009;28;20045;-63
2023/12/02 06:58:13;;;;;;;7.53;6.50;;;;;;;;;;5038743;28;20405;-59
2023/12/02 07:00:43;;;;;;;6.40;5.80;;;;;;;;;;5040336;28;20072;-61
2023/12/02 07:03:11;;;;;;;8.18;6.30;;;;;;;;;;5042132;28;20131;-58
2023/12/02 07:05:40;;;;;;;7.15;6.32;;;;;;;;;;5044977;28;20132;-61
2023/12/02 07:08:08;;;;;;;6.20;5.60;;;;;;;;;;5046122;28;20048;-62
2023/12/02 07:10:37;;;;;;;6.22;5.50;;;;;;;;;;5036758;28;20049;-59
2023/12/02 07:13:06;;;;;;;6.88;6.15;;;;;;;;;;5043494;28;21650;-60
2023/12/02 07:15:35;;;;;;;7.45;6.72;;;;;;;;;;5035533;28;20054;-59
2023/12/02 07:18:05;;;;;;;7.07;6.22;;;;;;;;;;5036793;28;20555;-61
2023/12/02 07:20:33;;;;;;;7.50;6.22;;;;;;;;;;5039228;28;20049;-59
2023/12/02 07:23:02;;;;;;;7.00;6.28;;;;;;;;;;5047178;28;20103;-59
2023/12/02 07:25:30;;;;;;;7.03;6.25;;;;;;;;;;5042286;28;20506;-60
2023/12/02 07:27:58;;;;;;;6.72;6.07;;;;;;;;;;5034473;28;20477;-61
2023/12/02 07:30:27;;;;;;;6.13;5.50;;;;;;;;;;5029346;28;20050;-62
2023/12/02 07:32:57;;;;;;;7.25;6.18;;;;;;;;;;5032096;28;20044;-60
2023/12/02 07:35:27;;;;;;;8.30;6.18;;;;;;;;;;5041866;28;20052;-62
2023/12/02 07:37:55;;;;;;;5.40;4.90;;;;;;;;;;5043031;28;20048;-63
2023/12/02 07:40:24;;;;;;;6.18;5.68;;;;;;;;;;5037942;28;20041;-62
2023/12/02 07:42:52;;;;;;;6.13;5.53;;;;;;;;;;5040159;28;20042;-62
2023/12/02 07:45:21;;;;;;;6.75;6.07;;;;;;;;;;5036967;28;20138;-59
2023/12/02 07:47:49;;;;;;;7.10;6.38;;;;;;;;;;5042858;28;20045;-62
2023/12/02 07:50:18;;;;;;;8.48;7.28;;;;;;;;;;5039054;28;20049;-62
2023/12/02 07:52:47;;;;;;;7.63;6.20;;;;;;;;;;5029684;28;20088;-60
2023/12/02 07:55:16;;;;;;;7.72;6.93;;;;;;;;;;5044096;28;20549;-60
2023/12/02 07:57:44;;;;;;;6.93;6.32;;;;;;;;;;5042218;28;20565;-65
2023/12/02 08:00:13;;;;;;;5.95;5.32;;;;;;;;;;5039042;28;20091;-61
2023/12/02 08:02:41;;;;;;;8.13;6.68;;;;;;;;;;5041925;28;20056;-62
2023/12/02 08:05:10;;;;;;;7.28;6.50;;;;;;;;;;5044848;28;20144;-65
2023/12/02 08:07:42;;;;;;;7.07;6.32;;;;;;;;;;5032965;28;20072;-60
2023/12/02 08:10:13;;;;;;;5.78;4.97;;;;;;;;;;5034449;28;20245;-63
2023/12/02 08:12:42;;;;;;;7.00;6.30;;;;;;;;;;5032084;28;20061;-62
2023/12/02 08:15:11;;;;;;;5.70;5.20;;;;;;;;;;5037281;28;20230;-61
2023/12/02 08:17:39;;;;;;;5.93;5.32;;;;;;;;;;5040374;28;20057;-61
2023/12/02 08:20:09;;;;;;;5.45;5.00;;;;;;;;;;5043800;28;20080;-62
2023/12/02 08:22:37;;;;;;;6.53;5.95;;;;;;;;;;5042586;28;20045;-64
2023/12/02 08:25:08;;;;;;;5.88;5.38;;;;;;;;;;5041914;28;20053;-64
2023/12/02 08:27:37;;;;;;;6.00;5.40;;;;;;;;;;5044726;28;20045;-59
2023/12/02 08:30:07;;;;;;;8.23;6.53;;;;;;;;;;5049162;28;20049;-60
2023/12/02 08:32:36;;;;;;;5.78;5.28;;;;;;;;;;5046332;28;20045;-60
2023/12/02 08:35:05;;;;;;;5.80;5.25;;;;;;;;;;5044440;28;20044;-58
2023/12/02 08:37:33;;;;;;;6.60;5.30;;;;;;;;;;5046996;28;20312;-58
2023/12/02 08:40:05;;;;;;;5.75;5.28;;;;;;;;;;5043845;28;20044;-59
2023/12/02 08:42:33;;;;;;;6.60;5.97;;;;;;;;;;5039274;28;20090;-61
2023/12/02 08:45:03;;;;;;;6.68;5.47;;;;;;;;;;5048923;28;20057;-59
2023/12/02 08:47:32;;;;;;;6.68;5.50;;;;;;;;;;5045532;28;20084;-60
2023/12/02 08:50:00;;;;;;;5.35;4.85;;;;;;;;;;5044716;28;20339;-60
2023/12/02 08:52:29;;;;;;;5.95;5.47;;;;;;;;;;5048721;28;20044;-63
2023/12/02 08:54:57;;;;;;;6.57;5.85;;;;;;;;;;5046352;28;20053;-61
2023/12/02 08:57:26;;;;;;;7.03;6.32;;;;;;;;;;5040908;28;20044;-68
2023/12/02 08:59:55;;;;;;;7.00;5.75;;;;;;;;;;5044553;28;20486;-59
2023/12/02 09:02:25;;;;;;;4.90;4.50;;;;;;;;;;5048403;28;20081;-60
2023/12/02 09:04:54;;;;;;;5.60;5.10;;;;;;;;;;5050133;28;20053;-58
2023/12/02 09:07:22;;;;;;;5.18;4.68;;;;;;;;;;5048517;28;20444;-59
2023/12/02 09:09:50;;;;;;;6.75;5.78;;;;;;;;;;5048605;28;20041;-60
2023/12/02 09:12:19;;;;;;;6.15;5.55;;;;;;;;;;5039986;28;20091;-59
2023/12/02 09:14:47;;;;;;;6.03;4.60;;;;;;;;;;5045517;28;20516;-60
2023/12/02 09:17:31;;;;;;;5.05;4.65;;;;;;;;;;5047317;28;20437;-61
2023/12/02 09:20:00;;;;;;;5.95;5.38;;;;;;;;;;5049847;28;20060;-61
2023/12/02 09:22:44;;;;;;;5.75;5.13;;;;;;;;;;5043157;28;20440;-59
2023/12/02 09:25:21;;;;;;;6.22;5.63;;;;;;;;;;5042834;28;20560;-58
2023/12/02 09:28:06;;;;;;;5.93;5.32;;;;;;;;;;5047541;28;20061;-61
2023/12/02 09:30:35;;;;;;;5.10;4.70;;;;;;;;;;5047552;28;20128;-59
2023/12/02 09:33:04;;;;;;;6.20;5.28;;;;;;;;;;5039337;28;20061;-60
2023/12/02 09:35:34;;;;;;;5.03;4.53;;;;;;;;;;5046276;28;20482;-60
2023/12/02 09:38:03;;;;;;;6.65;5.93;;;;;;;;;;5045884;28;20072;-60
2023/12/02 09:40:40;;;;;;;6.45;5.80;;;;;;;;;;5046830;28;20097;-63
2023/12/02 09:43:26;;;;;;;5.97;5.32;;;;;;;;;;5047709;28;20267;-60
2023/12/02 09:46:13;;;;;;;5.82;5.22;;;;;;;;;;5046839;28;20052;-59
2023/12/02 09:48:45;;;;;;;6.07;5.47;;;;;;;;;;5046755;28;20111;-61
2023/12/02 09:51:21;;;;;;;9.00;6.28;;;;;;;;;;5036370;28;20047;-61
2023/12/02 09:53:55;;;;;;;5.90;5.15;;;;;;;;;;5044479;28;20506;-59
2023/12/02 09:56:26;;;;;;;5.80;5.20;;;;;;;;;;5047235;28;20131;-62
2023/12/02 09:58:59;;;;;;;6.43;5.80;;;;;;;;;;5036875;28;20094;-62
2023/12/02 10:01:48;;;;;;;6.78;5.32;;;;;;;;;;5047388;28;20041;-61
2023/12/02 10:04:23;;;;;;;6.68;5.95;;;;;;;;;;5044816;28;20052;-63
2023/12/02 10:07:00;;;;;;;6.43;5.88;;;;;;;;;;5040169;28;20122;-59
2023/12/02 10:09:37;;;;;;;6.40;5.80;;;;;;;;;;5046394;28;20113;-63
2023/12/02 10:12:11;;;;;;;8.45;6.13;;;;;;;;;;5046275;28;20060;-61
2023/12/02 10:14:42;;;;;;;5.88;5.32;;;;;;;;;;5042207;28;20057;-60
2023/12/02 10:17:12;;;;;;;8.68;6.22;;;;;;;;;;5045054;28;20045;-62
2023/12/02 10:19:41;;;;;;;7.38;5.93;;;;;;;;;;5047050;28;20053;-63
2023/12/02 10:22:12;;;;;;;5.70;5.18;;;;;;;;;;5037618;28;20045;-63
2023/12/02 10:24:46;;;;;;;7.20;6.38;;;;;;;;;;5040690;28;20076;-60
2023/12/02 10:27:16;;;;;;;8.15;7.22;;;;;;;;;;5042545;28;20076;-62
2023/12/02 10:29:50;;;;;;;8.57;7.43;;;;;;;;;;5041148;28;20441;-63
2023/12/02 10:32:20;;;;;;;6.90;6.07;;;;;;;;;;5042624;28;20045;-62
2023/12/02 10:34:53;;;;;;;8.45;6.70;;;;;;;;;;5038686;28;20041;-62
2023/12/02 10:37:29;;;;;;;7.65;6.82;;;;;;;;;;5046176;28;20142;-63
2023/12/02 10:39:59;;;;;;;6.47;5.90;;;;;;;;;;5043869;28;20106;-60
2023/12/02 10:42:30;;;;;;;7.65;6.55;;;;;;;;;;5045313;28;20474;-63
2023/12/02 10:45:04;;;;;;;13.32;9.32;;;;;;;;;;5042998;28;20049;-66
2023/12/02 10:47:33;;;;;;;9.93;7.93;;;;;;;;;;5042710;28;20049;-60
2023/12/02 10:50:02;;;;;;;13.38;9.40;;;;;;;;;;5045006;28;20076;-61
2023/12/02 10:52:32;;;;;;;13.85;8.45;;;;;;;;;;5046135;28;20484;-62
2023/12/02 10:55:04;;;;;;;7.50;6.78;;;;;;;;;;5040556;28;20142;-62
2023/12/02 10:57:33;;;;;;;8.40;7.13;;;;;;;;;;5038998;28;20045;-61
2023/12/02 11:00:07;;;;;;;7.78;7.03;;;;;;;;;;5041427;28;20425;-60
2023/12/02 11:02:39;;;;;;;7.82;7.03;;;;;;;;;;5043684;28;20127;-60
2023/12/02 11:05:19;;;;;;;6.50;5.60;;;;;;;;;;5040523;28;20081;-62
2023/12/02 11:07:52;;;;;;;6.57;5.97;;;;;;;;;;5032054;28;20053;-64
2023/12/02 11:10:24;;;;;;;8.98;6.78;;;;;;;;;;5041506;28;20049;-61
2023/12/02 11:12:54;;;;;;;8.48;6.55;;;;;;;;;;5042637;28;20046;-60
2023/12/02 11:15:23;;;;;;;8.13;7.35;;;;;;;;;;5043498;28;20053;-64
2023/12/02 11:18:00;;;;;;;6.70;6.00;;;;;;;;;;5044492;28;20045;-59
2023/12/02 11:20:35;;;;;;;5.35;4.95;;;;;;;;;;5044905;28;20267;-63
2023/12/02 11:23:15;;;;;;;5.88;5.28;;;;;;;;;;5037826;28;20102;-65
2023/12/02 11:25:51;;;;;;;7.70;6.90;;;;;;;;;;5038273;28;20559;-60
2023/12/02 11:28:24;;;;;;;6.43;5.32;;;;;;;;;;5036525;28;20053;-62
2023/12/02 11:31:06;;;;;;;7.07;6.47;;;;;;;;;;5044770;28;20068;-58
2023/12/02 11:33:41;;;;;;;6.72;5.97;;;;;;;;;;5035238;28;20060;-58
2023/12/02 11:36:16;;;;;;;8.20;6.38;;;;;;;;;;5044739;28;20068;-62
2023/12/02 11:38:54;;;;;;;5.35;4.78;;;;;;;;;;5040975;28;20052;-63
2023/12/02 11:41:25;;;;;;;6.28;5.68;;;;;;;;;;5034888;28;20045;-59
2023/12/02 11:44:00;;;;;;;6.78;5.93;;;;;;;;;;5038762;28;20118;-62
2023/12/02 11:46:38;;;;;;;8.40;7.28;;;;;;;;;;5045159;28;20126;-62
2023/12/02 11:49:16;;;;;;;6.75;6.10;;;;;;;;;;5041988;28;20065;-60
2023/12/02 11:51:49;;;;;;;6.38;5.78;;;;;;;;;;5045727;28;20085;-60
2023/12/02 11:54:26;;;;;;;8.60;6.80;;;;;;;;;;5035825;28;20491;-59
2023/12/02 11:57:02;;;;;;;6.82;6.18;;;;;;;;;;5044003;28;20504;-61
2023/12/02 11:59:35;;;;;;;8.48;6.32;;;;;;;;;;5037273;28;20045;-62
2023/12/02 12:02:08;;;;;;;6.03;5.43;;;;;;;;;;5048097;28;20056;-60
2023/12/02 12:04:52;;;;;;;6.70;6.03;;;;;;;;;;5046537;28;20060;-61
2023/12/02 12:07:27;;;;;;;6.22;5.50;;;;;;;;;;5047528;28;20073;-62
2023/12/02 12:10:02;;;;;;;5.45;4.95;;;;;;;;;;5036968;28;20498;-62
2023/12/02 12:12:32;;;;;;;5.90;5.40;;;;;;;;;;5048726;28;20045;-62
2023/12/02 12:15:01;;;;;;;7.65;5.88;;;;;;;;;;5042532;28;20486;-62
2023/12/02 12:17:30;;;;;;;8.07;6.22;;;;;;;;;;5036338;28;20482;-65
2023/12/02 12:19:59;;;;;;;6.10;5.50;;;;;;;;;;5044330;28;20056;-63
2023/12/02 12:22:28;;;;;;;6.25;5.65;;;;;;;;;;5045441;28;20052;-61
2023/12/02 12:24:57;;;;;;;7.47;6.13;;;;;;;;;;5044716;28;20124;-60
2023/12/02 12:27:26;;;;;;;6.40;5.75;;;;;;;;;;5033566;28;20057;-64
2023/12/02 12:29:55;;;;;;;6.60;5.93;;;;;;;;;;5047797;28;20057;-63
2023/12/02 12:32:24;;;;;;;5.47;4.97;;;;;;;;;;5042851;28;20053;-60
2023/12/02 12:34:54;;;;;;;6.00;5.40;;;;;;;;;;5040659;28;20049;-61
2023/12/02 12:37:23;;;;;;;6.82;5.53;;;;;;;;;;5043871;28;20053;-60
2023/12/02 12:39:51;;;;;;;6.28;5.60;;;;;;;;;;5045905;28;20056;-65
2023/12/02 12:42:22;;;;;;;7.13;5.30;;;;;;;;;;5045106;28;20053;-61
2023/12/02 12:44:51;;;;;;;6.40;5.80;;;;;;;;;;5045976;28;20183;-66
2023/12/02 12:47:19;;;;;;;6.82;5.90;;;;;;;;;;5042580;28;20110;-63
2023/12/02 12:49:48;;;;;;;6.68;6.03;;;;;;;;;;5043102;28;20421;-63
2023/12/02 12:52:21;;;;;;;7.15;5.53;;;;;;;;;;5044650;28;20135;-70
2023/12/02 12:54:52;;;;;;;5.85;5.28;;;;;;;;;;5046283;28;20059;-66
2023/12/02 12:57:26;;;;;;;6.25;5.47;;;;;;;;;;5043713;28;20398;-63
2023/12/02 12:59:55;;;;;;;;;;;;;;;;;;5046426;28;20049;-64
2023/12/02 13:02:29;;;;;;;5.57;5.07;;;;;;;;;;5046947;28;20369;-61
2023/12/02 13:04:58;;;;;;;;;;;;;;;;;;5036197;28;20052;-63
2023/12/02 13:07:33;;;;;;;5.60;5.00;;;;;;;;;;5046402;28;19931;-61
2023/12/02 13:10:03;;;;;;;5.72;5.22;;;;;;;;;;5048024;28;20075;-66
2023/12/02 13:12:36;;;;;;;5.63;5.07;;;;;;;;;;5046649;28;20053;-60
2023/12/02 13:15:05;;;;;;;7.38;6.63;;;;;;;;;;5044785;28;20053;-60
2023/12/02 13:17:34;;;;;;;6.07;5.47;;;;;;;;;;5047430;28;20056;-62
2023/12/02 13:20:03;;;;;;;8.75;6.32;;;;;;;;;;5047434;28;20114;-63
2023/12/02 13:22:32;;;;;;;5.82;5.28;;;;;;;;;;5040807;28;20099;-61
2023/12/02 13:25:04;;;;;;;7.95;7.15;;;;;;;;;;5046122;28;20606;-60
2023/12/02 13:27:38;;;;;;;9.63;8.10;;;;;;;;;;5045877;28;20757;-60
2023/12/02 13:30:09;;;;;;;6.30;5.70;;;;;;;;;;5044318;28;20132;-62
2023/12/02 13:32:44;;;;;;;7.03;6.32;;;;;;;;;;5047339;28;20116;-71
2023/12/02 13:35:15;;;;;;;8.73;6.53;;;;;;;;;;5042069;28;20049;-62
2023/12/02 13:37:53;;;;;;;11.13;7.90;;;;;;;;;;5038051;28;20044;-58
2023/12/02 13:40:25;;;;;;;9.93;8.25;;;;;;;;;;5041491;28;20076;-64
2023/12/02 13:42:56;;;;;;;6.75;6.13;;;;;;;;;;5046026;28;20124;-69
2023/12/02 13:45:27;;;;;;;7.72;6.43;;;;;;;;;;5047736;28;20044;-65
2023/12/02 13:48:02;;;;;;;6.80;6.03;;;;;;;;;;5042394;28;20061;-61
2023/12/02 13:50:33;;;;;;;7.78;6.50;;;;;;;;;;5046304;28;20051;-64
2023/12/02 13:53:06;;;;;;;8.05;7.05;;;;;;;;;;5045843;28;20041;-65
2023/12/02 13:55:46;;;;;;;6.65;5.95;;;;;;;;;;5044491;28;20048;-68
2023/12/02 13:58:20;;;;;;;6.22;5.60;;;;;;;;;;5045096;28;20536;-62
2023/12/02 14:00:52;;;;;;;7.32;6.40;;;;;;;;;;5046669;28;20159;-66
2023/12/02 14:03:30;;;;;;;7.50;6.70;;;;;;;;;;5045839;28;20494;-66
2023/12/02 14:06:00;;;;;;;6.95;6.25;;;;;;;;;;5041716;28;20432;-68
2023/12/02 14:08:34;;;;;;;7.45;6.68;;;;;;;;;;5040933;28;20049;-65
2023/12/02 14:11:03;;;;;;;6.03;5.43;;;;;;;;;;5042986;28;20062;-63
2023/12/02 14:13:39;;;;;;;6.47;5.85;;;;;;;;;;5039947;28;20498;-61
2023/12/02 14:16:16;;;;;;;6.80;6.07;;;;;;;;;;5046154;28;20083;-65
2023/12/02 14:19:04;;;;;;;6.78;5.78;;;;;;;;;;5044518;28;20045;-62
2023/12/02 14:21:39;;;;;;;6.18;5.57;;;;;;;;;;5045569;28;20051;-66
2023/12/02 14:24:20;;;;;;;5.53;5.03;;;;;;;;;;5045344;28;20418;-65
2023/12/02 14:26:56;;;;;;;7.63;6.82;;;;;;;;;;5041672;28;20049;-62
2023/12/02 14:29:34;;;;;;;6.72;6.05;;;;;;;;;;5042155;28;20470;-62
2023/12/02 14:32:15;;;;;;;6.80;6.15;;;;;;;;;;5038556;28;20049;-62
2023/12/02 14:35:09;;;;;;;9.40;7.75;;;;;;;;;;5037280;28;20563;-63
2023/12/02 14:37:44;;;;;;;5.88;5.30;;;;;;;;;;5024262;28;20057;-62
2023/12/02 14:40:19;;;;;;;6.95;6.13;;;;;;;;;;5044897;28;20130;-65
2023/12/02 14:42:51;;;;;;;6.38;5.78;;;;;;;;;;5039320;28;20106;-63
2023/12/02 14:45:22;;;;;;;7.28;6.57;;;;;;;;;;5043452;28;20045;-63
2023/12/02 14:47:53;;;;;;;6.95;6.25;;;;;;;;;;5045790;28;20072;-62
2023/12/02 14:50:21;;;;;;;6.70;6.00;;;;;;;;;;5043304;28;20049;-63
2023/12/02 14:52:50;;;;;;;7.45;6.53;;;;;;;;;;5037673;28;20060;-67
2023/12/02 14:55:19;;;;;;;8.15;7.30;;;;;;;;;;5044082;28;20044;-65
2023/12/02 14:57:47;;;;;;;8.27;7.30;;;;;;;;;;5031248;28;20460;-64
2023/12/02 15:00:16;;;;;;;6.35;5.75;;;;;;;;;;5038228;28;20518;-61
2023/12/02 15:02:52;;;;;;;7.00;6.15;;;;;;;;;;5044163;28;20045;-62